createdAt,value
2022-08-20T00:00:21.160Z,20.81
2022-08-20T00:01:21.184Z,20.81
2022-08-20T00:02:21.161Z,20.80
2022-08-20T00:03:21.202Z,20.80
2022-08-20T00:04:21.127Z,20.78
2022-08-20T00:05:21.123Z,20.77
2022-08-20T00:06:21.098Z,20.75
2022-08-20T00:07:21.078Z,20.74
2022-08-20T00:08:21.131Z,20.70
2022-08-20T00:09:21.076Z,20.74
2022-08-20T00:10:21.039Z,20.72
2022-08-20T00:11:21.030Z,20.70
2022-08-20T00:12:21.012Z,20.67
2022-08-20T00:13:21.058Z,20.66
2022-08-20T00:14:20.990Z,20.65
2022-08-20T00:15:21.000Z,20.63
2022-08-20T00:16:20.987Z,20.63
2022-08-20T00:17:20.980Z,20.63
2022-08-20T00:18:21.011Z,20.60
2022-08-20T00:19:20.969Z,20.60
2022-08-20T00:20:20.938Z,20.59
2022-08-20T00:21:20.944Z,20.59
2022-08-20T00:22:20.924Z,20.59
2022-08-20T00:23:20.957Z,20.59
2022-08-20T00:24:20.899Z,20.56
2022-08-20T00:25:20.883Z,20.55
2022-08-20T00:26:20.850Z,20.55
2022-08-20T00:27:20.869Z,20.56
2022-08-20T00:28:20.897Z,20.55
2022-08-20T00:29:22.535Z,20.55
2022-08-20T00:30:20.817Z,20.55
2022-08-20T00:31:20.822Z,20.52
2022-08-20T00:32:20.791Z,20.51
2022-08-20T00:33:20.845Z,20.51
2022-08-20T00:34:20.777Z,20.51
2022-08-20T00:35:20.767Z,20.48
2022-08-20T00:36:20.773Z,20.47
2022-08-20T00:37:20.748Z,20.44
2022-08-20T00:38:20.770Z,20.47
2022-08-20T00:39:20.708Z,20.44
2022-08-20T00:40:22.382Z,20.44
2022-08-20T00:41:20.686Z,20.43
2022-08-20T00:42:20.682Z,20.41
2022-08-20T00:43:20.711Z,20.41
2022-08-20T00:44:20.659Z,20.41
2022-08-20T00:45:20.640Z,20.40
2022-08-20T00:46:20.653Z,20.40
2022-08-20T00:47:20.614Z,20.39
2022-08-20T00:48:20.650Z,20.40
2022-08-20T00:49:20.607Z,20.40
2022-08-20T00:50:20.614Z,20.40
2022-08-20T00:51:20.600Z,20.39
2022-08-20T00:52:20.555Z,20.37
2022-08-20T00:53:20.590Z,20.39
2022-08-20T00:54:20.546Z,20.37
2022-08-20T00:55:20.540Z,20.36
2022-08-20T00:56:20.519Z,20.37
2022-08-20T00:57:20.509Z,20.37
2022-08-20T00:58:20.537Z,20.39
2022-08-20T00:59:20.500Z,20.37
2022-08-20T01:00:20.479Z,20.36
2022-08-20T01:01:20.486Z,20.34
2022-08-20T01:02:20.496Z,20.32
2022-08-20T01:03:20.499Z,20.31
2022-08-20T01:04:20.434Z,20.29
2022-08-20T01:05:20.421Z,20.29
2022-08-20T01:06:21.403Z,20.28
2022-08-20T01:07:20.422Z,20.26
2022-08-20T01:08:20.435Z,20.26
2022-08-20T01:09:49.735Z,20.26
2022-08-20T01:10:21.378Z,20.26
2022-08-20T01:11:20.330Z,20.25
2022-08-20T01:12:20.345Z,20.25
2022-08-20T01:13:20.387Z,20.24
2022-08-20T01:14:20.318Z,20.22
2022-08-20T01:15:20.314Z,20.22
2022-08-20T01:16:21.303Z,20.24
2022-08-20T01:17:20.271Z,20.24
2022-08-20T01:18:20.307Z,20.21
2022-08-20T01:19:30.185Z,20.24
2022-08-20T01:20:21.259Z,20.24
2022-08-20T01:21:20.218Z,20.24
2022-08-20T01:22:20.221Z,20.22
2022-08-20T01:23:20.255Z,20.22
2022-08-20T01:24:20.210Z,20.22
2022-08-20T01:25:20.192Z,20.21
2022-08-20T01:26:20.196Z,20.21
2022-08-20T01:27:20.168Z,20.19
2022-08-20T01:28:20.189Z,20.21
2022-08-20T01:29:20.167Z,20.19
2022-08-20T01:30:20.146Z,20.19
2022-08-20T01:31:20.184Z,20.18
2022-08-20T01:32:20.126Z,20.19
2022-08-20T01:33:20.148Z,20.18
2022-08-20T01:34:20.088Z,20.19
2022-08-20T01:35:20.088Z,20.19
2022-08-20T01:36:20.079Z,20.18
2022-08-20T01:37:20.050Z,20.18
2022-08-20T01:38:20.092Z,20.18
2022-08-20T01:39:20.021Z,20.18
2022-08-20T01:40:20.001Z,20.18
2022-08-20T01:41:23.491Z,20.16
2022-08-20T01:42:20.979Z,20.13
2022-08-20T01:43:20.614Z,20.11
2022-08-20T01:44:19.984Z,20.14
2022-08-20T01:45:19.958Z,20.16
2022-08-20T01:46:19.965Z,20.16
2022-08-20T01:47:19.940Z,20.16
2022-08-20T01:48:19.978Z,20.16
2022-08-20T01:49:22.853Z,20.18
2022-08-20T01:50:19.900Z,20.16
2022-08-20T01:51:19.895Z,20.16
2022-08-20T01:52:19.888Z,20.18
2022-08-20T01:53:19.916Z,20.14
2022-08-20T01:54:19.873Z,20.14
2022-08-20T01:55:19.848Z,20.11
2022-08-20T01:56:19.849Z,20.13
2022-08-20T01:57:19.828Z,20.13
2022-08-20T01:58:19.884Z,20.13
2022-08-20T01:59:19.796Z,20.13
2022-08-20T02:00:21.988Z,20.13
2022-08-20T02:01:19.852Z,20.13
2022-08-20T02:02:19.799Z,20.16
2022-08-20T02:03:19.766Z,20.14
2022-08-20T02:04:19.805Z,20.13
2022-08-20T02:05:19.761Z,20.14
2022-08-20T02:06:19.734Z,20.14
2022-08-20T02:07:19.699Z,20.16
2022-08-20T02:08:19.704Z,20.18
2022-08-20T02:09:19.724Z,20.18
2022-08-20T02:10:19.686Z,20.14
2022-08-20T02:11:19.652Z,20.14
2022-08-20T02:12:19.663Z,20.13
2022-08-20T02:13:19.631Z,20.13
2022-08-20T02:14:19.695Z,20.16
2022-08-20T02:15:19.629Z,20.16
2022-08-20T02:16:20.613Z,20.16
2022-08-20T02:17:19.593Z,20.19
2022-08-20T02:18:19.583Z,20.19
2022-08-20T02:19:19.611Z,20.19
2022-08-20T02:20:19.562Z,20.18
2022-08-20T02:21:19.562Z,20.18
2022-08-20T02:22:19.561Z,20.18
2022-08-20T02:23:19.522Z,20.19
2022-08-20T02:24:19.581Z,20.18
2022-08-20T02:25:19.502Z,20.16
2022-08-20T02:26:19.505Z,20.19
2022-08-20T02:27:19.471Z,20.19
2022-08-20T02:28:19.471Z,20.18
2022-08-20T02:29:19.515Z,20.18
2022-08-20T02:30:19.973Z,20.18
2022-08-20T02:31:20.437Z,20.16
2022-08-20T02:32:28.376Z,20.18
2022-08-20T02:33:20.413Z,20.19
2022-08-20T02:34:22.822Z,20.16
2022-08-20T02:35:19.416Z,20.14
2022-08-20T02:36:19.374Z,20.16
2022-08-20T02:37:19.363Z,20.16
2022-08-20T02:38:19.361Z,20.13
2022-08-20T02:39:19.392Z,20.13
2022-08-20T02:40:27.191Z,20.13
2022-08-20T02:41:20.323Z,20.13
2022-08-20T02:42:19.312Z,20.14
2022-08-20T02:43:19.314Z,20.14
2022-08-20T02:44:19.335Z,20.13
2022-08-20T02:45:19.273Z,20.13
2022-08-20T02:46:19.290Z,20.14
2022-08-20T02:47:19.262Z,20.16
2022-08-20T02:48:19.244Z,20.16
2022-08-20T02:49:19.261Z,20.16
2022-08-20T02:50:19.224Z,20.14
2022-08-20T02:51:19.218Z,20.14
2022-08-20T02:52:20.207Z,20.11
2022-08-20T02:53:19.202Z,20.14
2022-08-20T02:54:19.241Z,20.14
2022-08-20T02:55:26.955Z,20.16
2022-08-20T02:56:20.154Z,20.13
2022-08-20T02:57:19.163Z,20.14
2022-08-20T02:58:19.122Z,20.13
2022-08-20T02:59:19.815Z,20.13
2022-08-20T03:00:19.113Z,20.14
2022-08-20T03:01:19.121Z,20.14
2022-08-20T03:02:19.087Z,20.13
2022-08-20T03:03:19.067Z,20.11
2022-08-20T03:04:19.131Z,20.14
2022-08-20T03:05:20.059Z,20.16
2022-08-20T03:06:19.054Z,20.14
2022-08-20T03:07:19.028Z,20.14
2022-08-20T03:08:19.016Z,20.16
2022-08-20T03:09:19.047Z,20.14
2022-08-20T03:10:19.046Z,20.14
2022-08-20T03:11:18.972Z,20.14
2022-08-20T03:12:18.969Z,20.14
2022-08-20T03:13:18.965Z,20.14
2022-08-20T03:14:19.011Z,20.13
2022-08-20T03:15:18.956Z,20.13
2022-08-20T03:16:18.921Z,20.13
2022-08-20T03:17:18.917Z,20.11
2022-08-20T03:18:18.912Z,20.11
2022-08-20T03:19:18.939Z,20.10
2022-08-20T03:20:22.399Z,20.11
2022-08-20T03:21:19.872Z,20.10
2022-08-20T03:22:18.843Z,20.09
2022-08-20T03:23:18.857Z,20.10
2022-08-20T03:24:18.874Z,20.10
2022-08-20T03:25:18.829Z,20.10
2022-08-20T03:26:18.807Z,20.13
2022-08-20T03:27:18.808Z,20.13
2022-08-20T03:28:19.795Z,20.14
2022-08-20T03:29:18.821Z,20.13
2022-08-20T03:30:18.767Z,20.13
2022-08-20T03:31:18.756Z,20.13
2022-08-20T03:32:18.756Z,20.14
2022-08-20T03:33:18.739Z,20.13
2022-08-20T03:34:18.772Z,20.13
2022-08-20T03:35:18.712Z,20.11
2022-08-20T03:36:20.802Z,20.13
2022-08-20T03:37:19.698Z,20.13
2022-08-20T03:38:18.682Z,20.13
2022-08-20T03:39:19.722Z,20.13
2022-08-20T03:40:18.648Z,20.14
2022-08-20T03:41:18.632Z,20.14
2022-08-20T03:42:18.611Z,20.14
2022-08-20T03:43:18.626Z,20.13
2022-08-20T03:44:18.667Z,20.14
2022-08-20T03:45:20.577Z,20.13
2022-08-20T03:46:23.160Z,20.13
2022-08-20T03:47:19.572Z,20.14
2022-08-20T03:48:18.573Z,20.13
2022-08-20T03:49:18.602Z,20.11
2022-08-20T03:50:22.942Z,20.10
2022-08-20T03:51:19.527Z,20.11
2022-08-20T03:52:18.512Z,20.09
2022-08-20T03:53:18.507Z,20.09
2022-08-20T03:54:18.553Z,20.10
2022-08-20T03:55:18.487Z,20.11
2022-08-20T03:56:18.477Z,20.13
2022-08-20T03:57:18.462Z,20.09
2022-08-20T03:58:18.440Z,20.10
2022-08-20T03:59:18.496Z,20.09
2022-08-20T04:00:18.444Z,20.10
2022-08-20T04:01:45.100Z,20.09
2022-08-20T04:02:19.398Z,20.10
2022-08-20T04:03:18.396Z,20.09
2022-08-20T04:04:18.431Z,20.10
2022-08-20T04:05:18.404Z,20.09
2022-08-20T04:06:18.350Z,20.06
2022-08-20T04:07:18.347Z,20.07
2022-08-20T04:08:18.353Z,20.09
2022-08-20T04:09:18.383Z,20.07
2022-08-20T04:10:18.307Z,20.07
2022-08-20T04:11:18.304Z,20.09
2022-08-20T04:12:18.282Z,20.07
2022-08-20T04:13:18.291Z,20.09
2022-08-20T04:14:18.634Z,20.07
2022-08-20T04:15:18.265Z,20.07
2022-08-20T04:16:18.257Z,20.07
2022-08-20T04:17:18.249Z,20.04
2022-08-20T04:18:18.227Z,20.07
2022-08-20T04:19:18.273Z,20.07
2022-08-20T04:20:18.203Z,20.07
2022-08-20T04:21:18.187Z,20.07
2022-08-20T04:22:18.197Z,20.07
2022-08-20T04:23:18.170Z,20.07
2022-08-20T04:24:22.631Z,20.06
2022-08-20T04:25:19.141Z,20.06
2022-08-20T04:26:18.132Z,20.06
2022-08-20T04:27:18.117Z,20.09
2022-08-20T04:28:18.137Z,20.07
2022-08-20T04:29:18.148Z,20.07
2022-08-20T04:30:18.077Z,20.06
2022-08-20T04:31:21.010Z,20.09
2022-08-20T04:32:19.057Z,20.09
2022-08-20T04:33:19.214Z,20.07
2022-08-20T04:34:19.109Z,20.07
2022-08-20T04:35:18.042Z,20.07
2022-08-20T04:36:18.027Z,20.07
2022-08-20T04:37:18.013Z,20.09
2022-08-20T04:38:17.991Z,20.04
2022-08-20T04:39:18.030Z,20.06
2022-08-20T04:40:18.019Z,20.06
2022-08-20T04:41:22.709Z,20.07
2022-08-20T04:42:18.947Z,20.07
2022-08-20T04:43:17.948Z,20.09
2022-08-20T04:44:17.960Z,20.09
2022-08-20T04:45:17.946Z,20.09
2022-08-20T04:46:17.918Z,20.11
2022-08-20T04:47:17.903Z,20.16
2022-08-20T04:48:18.899Z,20.19
2022-08-20T04:49:17.917Z,20.14
2022-08-20T04:50:17.841Z,20.11
2022-08-20T04:51:17.935Z,20.11
2022-08-20T04:52:17.840Z,20.07
2022-08-20T04:53:19.136Z,20.09
2022-08-20T04:54:17.847Z,20.09
2022-08-20T04:55:17.822Z,20.09
2022-08-20T04:56:17.793Z,20.10
2022-08-20T04:57:17.776Z,20.09
2022-08-20T04:58:17.761Z,20.11
2022-08-20T04:59:17.813Z,20.10
2022-08-20T05:00:17.749Z,20.14
2022-08-20T05:01:17.770Z,20.16
2022-08-20T05:02:17.722Z,20.16
2022-08-20T05:03:17.717Z,20.18
2022-08-20T05:04:17.743Z,20.19
2022-08-20T05:05:17.695Z,20.19
2022-08-20T05:06:17.668Z,20.18
2022-08-20T05:07:17.685Z,20.14
2022-08-20T05:08:20.149Z,20.11
2022-08-20T05:09:17.688Z,20.13
2022-08-20T05:10:17.621Z,20.14
2022-08-20T05:11:34.773Z,20.09
2022-08-20T05:12:18.597Z,20.10
2022-08-20T05:13:17.588Z,20.09
2022-08-20T05:14:17.633Z,20.09
2022-08-20T05:15:17.588Z,20.10
2022-08-20T05:16:17.555Z,20.07
2022-08-20T05:17:17.557Z,20.06
2022-08-20T05:18:17.555Z,20.04
2022-08-20T05:19:17.584Z,20.06
2022-08-20T05:20:17.515Z,20.06
2022-08-20T05:21:17.544Z,20.09
2022-08-20T05:22:17.498Z,20.09
2022-08-20T05:23:17.499Z,20.10
2022-08-20T05:24:17.514Z,20.11
2022-08-20T05:25:17.468Z,20.13
2022-08-20T05:26:17.448Z,20.14
2022-08-20T05:27:24.988Z,20.14
2022-08-20T05:28:18.447Z,20.10
2022-08-20T05:29:17.473Z,20.10
2022-08-20T05:30:17.416Z,20.11
2022-08-20T05:31:17.392Z,20.10
2022-08-20T05:32:17.368Z,20.10
2022-08-20T05:33:17.377Z,20.10
2022-08-20T05:34:17.403Z,20.10
2022-08-20T05:35:17.395Z,20.11
2022-08-20T05:36:17.372Z,20.11
2022-08-20T05:37:17.340Z,20.11
2022-08-20T05:38:17.324Z,20.11
2022-08-20T05:39:17.382Z,20.16
2022-08-20T05:40:17.335Z,20.16
2022-08-20T05:41:28.967Z,20.18
2022-08-20T05:42:18.279Z,20.16
2022-08-20T05:43:17.264Z,20.16
2022-08-20T05:44:17.331Z,20.13
2022-08-20T05:45:17.265Z,20.06
2022-08-20T05:46:17.239Z,20.07
2022-08-20T05:47:17.231Z,20.09
2022-08-20T05:48:17.212Z,20.10
2022-08-20T05:49:17.238Z,20.10
2022-08-20T05:50:20.660Z,20.13
2022-08-20T05:51:18.181Z,20.16
2022-08-20T05:52:17.173Z,20.13
2022-08-20T05:53:17.152Z,20.11
2022-08-20T05:54:17.179Z,20.13
2022-08-20T05:55:17.133Z,20.13
2022-08-20T05:56:17.110Z,20.07
2022-08-20T05:57:17.118Z,20.09
2022-08-20T05:58:17.080Z,20.10
2022-08-20T05:59:19.994Z,20.10
2022-08-20T06:00:18.065Z,20.11
2022-08-20T06:01:17.100Z,20.06
2022-08-20T06:02:17.040Z,20.02
2022-08-20T06:03:17.048Z,20.03
2022-08-20T06:04:17.075Z,20.03
2022-08-20T06:05:17.018Z,20.02
2022-08-20T06:06:20.681Z,20.03
2022-08-20T06:07:17.995Z,20.03
2022-08-20T06:08:16.976Z,20.00
2022-08-20T06:09:27.916Z,20.00
2022-08-20T06:10:17.949Z,20.00
2022-08-20T06:11:16.952Z,19.94
2022-08-20T06:12:16.943Z,19.95
2022-08-20T06:13:16.916Z,19.94
2022-08-20T06:14:16.975Z,19.95
2022-08-20T06:15:16.909Z,19.92
2022-08-20T06:16:16.898Z,19.89
2022-08-20T06:17:16.871Z,19.86
2022-08-20T06:18:28.071Z,19.88
2022-08-20T06:19:17.906Z,19.88
2022-08-20T06:20:17.839Z,19.88
2022-08-20T06:21:16.856Z,19.86
2022-08-20T06:22:19.415Z,19.85
2022-08-20T06:23:17.825Z,19.86
2022-08-20T06:24:16.859Z,19.84
2022-08-20T06:25:16.807Z,19.81
2022-08-20T06:26:16.779Z,19.84
2022-08-20T06:27:17.768Z,19.84
2022-08-20T06:28:16.758Z,19.81
2022-08-20T06:29:16.789Z,19.82
2022-08-20T06:30:16.736Z,19.82
2022-08-20T06:31:16.716Z,19.82
2022-08-20T06:32:16.711Z,19.82
2022-08-20T06:33:16.701Z,19.84
2022-08-20T06:34:16.727Z,19.84
2022-08-20T06:35:19.870Z,19.81
2022-08-20T06:36:18.795Z,19.79
2022-08-20T06:37:16.665Z,19.74
2022-08-20T06:38:16.652Z,19.74
2022-08-20T06:39:16.655Z,19.73
2022-08-20T06:40:16.653Z,19.71
2022-08-20T06:41:16.592Z,19.71
2022-08-20T06:42:20.900Z,19.76
2022-08-20T06:43:16.604Z,19.82
2022-08-20T06:44:16.618Z,19.76
2022-08-20T06:45:16.562Z,19.76
2022-08-20T06:46:16.568Z,19.76
2022-08-20T06:47:16.548Z,19.81
2022-08-20T06:48:16.545Z,19.82
2022-08-20T06:49:16.572Z,19.76
2022-08-20T06:50:16.514Z,19.76
2022-08-20T06:51:16.510Z,19.74
2022-08-20T06:52:16.476Z,19.76
2022-08-20T06:53:16.498Z,19.77
2022-08-20T06:54:16.514Z,19.79
2022-08-20T06:55:16.478Z,19.81
2022-08-20T06:56:16.439Z,19.82
2022-08-20T06:57:16.451Z,19.91
2022-08-20T06:58:36.870Z,19.91
2022-08-20T06:59:17.474Z,19.82
2022-08-20T07:00:16.387Z,19.88
2022-08-20T07:01:16.453Z,19.91
2022-08-20T07:02:16.373Z,19.85
2022-08-20T07:03:16.362Z,19.86
2022-08-20T07:04:16.418Z,19.91
2022-08-20T07:05:16.323Z,19.85
2022-08-20T07:06:16.325Z,19.88
2022-08-20T07:07:16.287Z,19.91
2022-08-20T07:08:16.285Z,19.86
2022-08-20T07:09:16.323Z,19.84
2022-08-20T07:10:16.255Z,19.88
2022-08-20T07:11:16.262Z,19.89
2022-08-20T07:12:16.251Z,19.91
2022-08-20T07:13:16.247Z,19.89
2022-08-20T07:14:16.295Z,19.89
2022-08-20T07:15:16.223Z,19.96
2022-08-20T07:16:16.197Z,19.96
2022-08-20T07:17:16.169Z,19.96
2022-08-20T07:18:16.194Z,19.96
2022-08-20T07:19:17.217Z,20.03
2022-08-20T07:20:16.154Z,20.04
2022-08-20T07:21:16.160Z,20.07
2022-08-20T07:22:16.146Z,20.04
2022-08-20T07:23:16.138Z,20.03
2022-08-20T07:24:16.167Z,20.07
2022-08-20T07:25:16.099Z,20.14
2022-08-20T07:26:16.105Z,20.18
2022-08-20T07:27:16.086Z,20.09
2022-08-20T07:28:16.055Z,20.07
2022-08-20T07:29:16.097Z,20.09
2022-08-20T07:30:17.071Z,20.14
2022-08-20T07:31:16.182Z,20.19
2022-08-20T07:32:16.063Z,20.18
2022-08-20T07:33:17.030Z,20.13
2022-08-20T07:34:16.086Z,20.09
2022-08-20T07:35:15.986Z,20.10
2022-08-20T07:36:15.998Z,20.07
2022-08-20T07:37:15.967Z,20.10
2022-08-20T07:38:15.943Z,20.10
2022-08-20T07:39:16.002Z,20.07
2022-08-20T07:40:15.979Z,20.06
2022-08-20T07:41:15.925Z,20.06
2022-08-20T07:42:15.918Z,20.02
2022-08-20T07:43:15.912Z,20.00
2022-08-20T07:44:15.943Z,20.00
2022-08-20T07:45:15.885Z,19.96
2022-08-20T07:46:15.864Z,19.96
2022-08-20T07:47:15.875Z,19.91
2022-08-20T07:48:27.925Z,19.89
2022-08-20T07:49:16.929Z,19.91
2022-08-20T07:50:15.835Z,19.91
2022-08-20T07:51:15.787Z,19.91
2022-08-20T07:52:15.807Z,19.88
2022-08-20T07:53:15.801Z,19.86
2022-08-20T07:54:15.825Z,19.86
2022-08-20T07:55:15.770Z,19.86
2022-08-20T07:56:15.764Z,19.85
2022-08-20T07:57:15.738Z,19.86
2022-08-20T07:58:15.718Z,19.88
2022-08-20T07:59:15.754Z,19.86
2022-08-20T08:00:15.707Z,19.86
2022-08-20T08:01:15.745Z,19.84
2022-08-20T08:02:15.679Z,19.85
2022-08-20T08:03:15.679Z,19.84
2022-08-20T08:04:15.702Z,19.86
2022-08-20T08:05:15.664Z,19.85
2022-08-20T08:06:15.626Z,19.82
2022-08-20T08:07:15.605Z,19.81
2022-08-20T08:08:15.595Z,19.79
2022-08-20T08:09:15.669Z,19.84
2022-08-20T08:10:15.614Z,19.82
2022-08-20T08:11:15.604Z,19.82
2022-08-20T08:12:15.587Z,19.85
2022-08-20T08:13:15.558Z,19.88
2022-08-20T08:14:15.599Z,19.95
2022-08-20T08:15:15.541Z,20.02
2022-08-20T08:16:15.525Z,20.07
2022-08-20T08:17:15.520Z,20.10
2022-08-20T08:18:15.530Z,20.09
2022-08-20T08:19:15.538Z,20.16
2022-08-20T08:20:15.491Z,20.21
2022-08-20T08:21:15.485Z,20.26
2022-08-20T08:22:15.458Z,20.31
2022-08-20T08:23:31.857Z,20.32
2022-08-20T08:24:20.898Z,20.25
2022-08-20T08:25:16.421Z,20.21
2022-08-20T08:26:15.918Z,20.26
2022-08-20T08:27:15.420Z,20.29
2022-08-20T08:28:15.405Z,20.31
2022-08-20T08:29:15.424Z,20.29
2022-08-20T08:30:15.353Z,20.32
2022-08-20T08:31:15.386Z,20.34
2022-08-20T08:32:15.353Z,20.36
2022-08-20T08:33:15.322Z,20.36
2022-08-20T08:34:15.367Z,20.43
2022-08-20T08:35:15.286Z,20.41
2022-08-20T08:36:15.275Z,20.40
2022-08-20T08:37:15.275Z,20.48
2022-08-20T08:38:15.266Z,20.48
2022-08-20T08:39:15.300Z,20.56
2022-08-20T08:40:15.360Z,20.52
2022-08-20T08:41:15.257Z,20.58
2022-08-20T08:42:15.238Z,20.59
2022-08-20T08:43:15.222Z,20.59
2022-08-20T08:44:16.255Z,20.56
2022-08-20T08:45:15.188Z,20.52
2022-08-20T08:46:15.178Z,20.47
2022-08-20T08:47:15.176Z,20.44
2022-08-20T08:48:18.431Z,20.40
2022-08-20T08:49:15.201Z,20.36
2022-08-20T08:50:15.141Z,20.39
2022-08-20T08:51:15.120Z,20.34
2022-08-20T08:52:15.093Z,20.31
2022-08-20T08:53:15.086Z,20.36
2022-08-20T08:54:15.140Z,20.37
2022-08-20T08:55:15.074Z,20.37
2022-08-20T08:56:15.066Z,20.43
2022-08-20T08:57:15.064Z,20.44
2022-08-20T08:58:16.913Z,20.51
2022-08-20T08:59:15.086Z,20.51
2022-08-20T09:00:15.020Z,20.47
2022-08-20T09:01:54.504Z,20.48
2022-08-20T09:02:16.034Z,20.47
2022-08-20T09:03:15.003Z,20.52
2022-08-20T09:04:15.002Z,20.56
2022-08-20T09:05:14.960Z,20.60
2022-08-20T09:06:14.934Z,20.55
2022-08-20T09:07:14.911Z,20.41
2022-08-20T09:08:17.047Z,20.31
2022-08-20T09:09:14.976Z,20.28
2022-08-20T09:10:14.904Z,20.36
2022-08-20T09:11:14.877Z,20.31
2022-08-20T09:12:14.898Z,20.24
2022-08-20T09:13:14.847Z,20.28
2022-08-20T09:14:14.906Z,20.37
2022-08-20T09:15:14.846Z,20.47
2022-08-20T09:16:14.856Z,20.39
2022-08-20T09:17:14.816Z,20.39
2022-08-20T09:18:14.797Z,20.44
2022-08-20T09:19:14.800Z,20.36
2022-08-20T09:20:14.830Z,20.39
2022-08-20T09:21:14.784Z,20.50
2022-08-20T09:22:14.776Z,20.58
2022-08-20T09:23:14.746Z,20.62
2022-08-20T09:24:14.735Z,20.52
2022-08-20T09:25:14.761Z,20.59
2022-08-20T09:26:14.732Z,20.43
2022-08-20T09:27:14.707Z,20.43
2022-08-20T09:28:14.697Z,20.48
2022-08-20T09:29:15.049Z,20.44
2022-08-20T09:30:14.668Z,20.47
2022-08-20T09:31:14.655Z,20.50
2022-08-20T09:32:14.654Z,20.59
2022-08-20T09:33:14.641Z,20.66
2022-08-20T09:34:14.674Z,20.69
2022-08-20T09:35:14.604Z,20.69
2022-08-20T09:36:28.754Z,20.63
2022-08-20T09:37:15.582Z,20.65
2022-08-20T09:38:14.583Z,20.59
2022-08-20T09:39:14.608Z,20.51
2022-08-20T09:40:14.640Z,20.48
2022-08-20T09:41:15.564Z,20.40
2022-08-20T09:42:14.536Z,20.44
2022-08-20T09:43:14.518Z,20.36
2022-08-20T09:44:14.523Z,20.39
2022-08-20T09:45:14.526Z,20.41
2022-08-20T09:46:14.490Z,20.55
2022-08-20T09:47:14.505Z,20.65
2022-08-20T09:48:14.467Z,20.75
2022-08-20T09:49:14.438Z,20.77
2022-08-20T09:50:14.519Z,20.67
2022-08-20T09:51:14.425Z,20.65
2022-08-20T09:52:14.426Z,20.62
2022-08-20T09:53:14.408Z,20.67
2022-08-20T09:54:14.406Z,20.59
2022-08-20T09:55:14.427Z,20.69
2022-08-20T09:56:14.366Z,20.78
2022-08-20T09:57:14.371Z,20.99
2022-08-20T09:58:14.343Z,21.29
2022-08-20T09:59:14.326Z,21.27
2022-08-20T10:00:14.388Z,21.39
2022-08-20T10:01:14.524Z,21.55
2022-08-20T10:02:14.311Z,21.80
2022-08-20T10:03:14.289Z,21.92
2022-08-20T10:04:14.292Z,21.67
2022-08-20T10:05:14.308Z,21.70
2022-08-20T10:06:14.257Z,21.89
2022-08-20T10:07:16.020Z,21.95
2022-08-20T10:08:14.233Z,22.11
2022-08-20T10:09:14.239Z,22.00
2022-08-20T10:10:14.285Z,21.75
2022-08-20T10:11:14.204Z,21.69
2022-08-20T10:12:14.197Z,21.55
2022-08-20T10:13:15.454Z,21.51
2022-08-20T10:14:14.174Z,21.39
2022-08-20T10:15:14.184Z,21.37
2022-08-20T10:16:14.156Z,21.37
2022-08-20T10:17:14.146Z,21.32
2022-08-20T10:18:14.108Z,21.33
2022-08-20T10:19:14.094Z,21.24
2022-08-20T10:20:14.214Z,21.20
2022-08-20T10:21:14.089Z,21.15
2022-08-20T10:22:14.071Z,21.12
2022-08-20T10:23:14.066Z,21.20
2022-08-20T10:24:14.061Z,21.35
2022-08-20T10:25:14.065Z,21.43
2022-08-20T10:26:14.036Z,21.42
2022-08-20T10:27:14.035Z,21.29
2022-08-20T10:28:14.009Z,21.30
2022-08-20T10:29:13.971Z,21.35
2022-08-20T10:30:14.025Z,21.27
2022-08-20T10:31:13.961Z,21.21
2022-08-20T10:32:13.973Z,21.20
2022-08-20T10:33:13.950Z,21.18
2022-08-20T10:34:13.939Z,21.22
2022-08-20T10:35:13.957Z,21.06
2022-08-20T10:36:13.931Z,20.96
2022-08-20T10:37:13.917Z,21.02
2022-08-20T10:38:13.891Z,21.09
2022-08-20T10:39:13.870Z,21.21
2022-08-20T10:40:14.013Z,21.14
2022-08-20T10:41:13.849Z,21.14
2022-08-20T10:42:13.856Z,21.11
2022-08-20T10:43:13.825Z,21.15
2022-08-20T10:44:13.843Z,21.24
2022-08-20T10:45:13.865Z,21.33
2022-08-20T10:46:13.803Z,21.29
2022-08-20T10:47:13.794Z,21.17
2022-08-20T10:48:17.069Z,21.25
2022-08-20T10:49:14.781Z,21.29
2022-08-20T10:50:13.801Z,21.20
2022-08-20T10:51:13.743Z,21.25
2022-08-20T10:52:13.741Z,21.22
2022-08-20T10:53:13.709Z,21.18
2022-08-20T10:54:13.715Z,21.17
2022-08-20T10:55:13.747Z,21.03
2022-08-20T10:56:15.660Z,20.99
2022-08-20T10:57:13.687Z,21.05
2022-08-20T10:58:13.665Z,21.06
2022-08-20T10:59:13.629Z,21.06
2022-08-20T11:00:13.679Z,21.03
2022-08-20T11:01:13.659Z,21.07
2022-08-20T11:02:14.637Z,21.02
2022-08-20T11:03:13.620Z,21.00
2022-08-20T11:04:13.599Z,20.95
2022-08-20T11:05:13.630Z,20.99
2022-08-20T11:06:13.599Z,20.99
2022-08-20T11:07:13.555Z,20.82
2022-08-20T11:08:13.541Z,20.82
2022-08-20T11:09:13.544Z,20.82
2022-08-20T11:10:14.034Z,20.81
2022-08-20T11:11:13.517Z,20.84
2022-08-20T11:12:13.524Z,20.82
2022-08-20T11:13:13.484Z,20.77
2022-08-20T11:14:13.476Z,20.82
2022-08-20T11:15:13.523Z,20.82
2022-08-20T11:16:13.455Z,20.80
2022-08-20T11:17:13.439Z,20.77
2022-08-20T11:18:13.450Z,20.69
2022-08-20T11:19:13.428Z,20.67
2022-08-20T11:20:13.466Z,20.77
2022-08-20T11:21:13.392Z,20.78
2022-08-20T11:22:13.389Z,20.74
2022-08-20T11:23:13.369Z,20.69
2022-08-20T11:24:13.350Z,20.75
2022-08-20T11:25:13.385Z,20.72
2022-08-20T11:26:13.339Z,20.74
2022-08-20T11:27:13.340Z,20.69
2022-08-20T11:28:13.332Z,20.78
2022-08-20T11:29:13.311Z,20.82
2022-08-20T11:30:13.326Z,20.77
2022-08-20T11:31:13.265Z,20.74
2022-08-20T11:32:13.276Z,20.78
2022-08-20T11:33:13.265Z,20.84
2022-08-20T11:34:13.259Z,20.85
2022-08-20T11:35:41.155Z,20.84
2022-08-20T11:36:14.243Z,20.72
2022-08-20T11:37:13.223Z,20.75
2022-08-20T11:38:13.219Z,20.67
2022-08-20T11:39:13.204Z,20.65
2022-08-20T11:40:13.263Z,20.62
2022-08-20T11:41:13.193Z,20.44
2022-08-20T11:42:13.149Z,20.41
2022-08-20T11:43:15.142Z,20.44
2022-08-20T11:44:21.172Z,20.41
2022-08-20T11:45:14.164Z,20.28
2022-08-20T11:46:13.111Z,20.16
2022-08-20T11:47:13.090Z,20.04
2022-08-20T11:48:13.116Z,20.03
2022-08-20T11:49:13.072Z,20.02
2022-08-20T11:50:13.115Z,20.03
2022-08-20T11:51:13.060Z,20.02
2022-08-20T11:52:13.077Z,19.99
2022-08-20T11:53:13.046Z,20.02
2022-08-20T11:54:13.039Z,19.92
2022-08-20T11:55:13.063Z,19.89
2022-08-20T11:56:13.407Z,19.89
2022-08-20T11:57:13.005Z,19.84
2022-08-20T11:58:12.977Z,19.81
2022-08-20T11:59:12.969Z,19.85
2022-08-20T12:00:12.981Z,19.84
2022-08-20T12:01:12.923Z,19.81
2022-08-20T12:02:12.904Z,19.82
2022-08-20T12:03:12.994Z,19.73
2022-08-20T12:04:12.907Z,19.79
2022-08-20T12:05:12.941Z,19.81
2022-08-20T12:06:12.885Z,19.81
2022-08-20T12:07:12.874Z,19.82
2022-08-20T12:08:26.750Z,19.85
2022-08-20T12:09:13.856Z,19.86
2022-08-20T12:10:12.880Z,19.76
2022-08-20T12:11:12.830Z,19.74
2022-08-20T12:12:12.806Z,19.69
2022-08-20T12:13:12.808Z,19.70
2022-08-20T12:14:12.808Z,19.69
2022-08-20T12:15:12.844Z,19.70
2022-08-20T12:16:12.783Z,19.63
2022-08-20T12:17:12.770Z,19.56
2022-08-20T12:18:12.741Z,19.56
2022-08-20T12:19:12.727Z,19.59
2022-08-20T12:20:12.791Z,19.59
2022-08-20T12:21:12.714Z,19.66
2022-08-20T12:22:21.268Z,19.66
2022-08-20T12:23:13.705Z,19.63
2022-08-20T12:24:12.672Z,19.66
2022-08-20T12:25:12.718Z,19.70
2022-08-20T12:26:12.640Z,19.73
2022-08-20T12:27:12.651Z,19.73
2022-08-20T12:28:12.635Z,19.79
2022-08-20T12:29:12.611Z,19.77
2022-08-20T12:30:12.630Z,19.84
2022-08-20T12:31:12.576Z,19.81
2022-08-20T12:32:12.584Z,19.88
2022-08-20T12:33:12.576Z,19.95
2022-08-20T12:34:12.560Z,20.03
2022-08-20T12:35:12.662Z,19.96
2022-08-20T12:36:12.551Z,19.96
2022-08-20T12:37:15.420Z,20.00
2022-08-20T12:38:12.518Z,20.09
2022-08-20T12:39:12.526Z,20.07
2022-08-20T12:40:12.594Z,20.07
2022-08-20T12:41:12.485Z,20.06
2022-08-20T12:42:12.468Z,20.03
2022-08-20T12:43:12.454Z,20.13
2022-08-20T12:44:13.473Z,20.13
2022-08-20T12:45:12.517Z,20.09
2022-08-20T12:46:12.420Z,20.16
2022-08-20T12:47:12.401Z,20.11
2022-08-20T12:48:12.413Z,20.16
2022-08-20T12:49:12.396Z,20.21
2022-08-20T12:50:12.452Z,20.28
2022-08-20T12:51:12.386Z,20.37
2022-08-20T12:52:12.345Z,20.44